Time;durP1;ratioP1;P1;durP2;ratioP2;P2;SDS_P1;SDS_P2;PMS_P1;PMS_P2;Temp;Humidity;BMP_temperature;BMP_pressure;BME280_temperature;BME280_humidity;BME280_pressure;Samples;Min_cycle;Max_cycle;Signal;HPM_P1;HPM_P2
2023/04/27 00:00:38;;;;;;;7.10;5.70;;;8.20;35.50;;;;;;5073988;28;20195;-49
2023/04/27 00:03:04;;;;;;;9.13;6.07;;;8.20;35.60;;;;;;5073552;28;20204;-49
2023/04/27 00:05:34;;;;;;;7.63;5.45;;;8.20;35.50;;;;;;5073940;28;20187;-49
2023/04/27 00:08:00;;;;;;;10.75;5.65;;;8.20;35.80;;;;;;5073625;28;20216;-49
2023/04/27 00:10:26;;;;;;;7.20;5.55;;;8.10;35.80;;;;;;5073505;28;20199;-49
2023/04/27 00:12:52;;;;;;;6.70;5.90;;;8.10;35.70;;;;;;5073183;28;20206;-49
2023/04/27 00:15:18;;;;;;;8.77;5.80;;;8.10;35.90;;;;;;5073522;28;20201;-49
2023/04/27 00:17:43;;;;;;;8.43;5.70;;;8.00;36.20;;;;;;5073798;28;20220;-49
2023/04/27 00:20:11;;;;;;;7.23;5.27;;;8.00;35.90;;;;;;5073355;28;20528;-49
2023/04/27 00:22:38;;;;;;;9.15;5.72;;;8.00;35.90;;;;;;5073001;28;20179;-49
2023/04/27 00:25:05;;;;;;;9.23;5.35;;;8.00;35.90;;;;;;5073492;28;20580;-49
2023/04/27 00:27:31;;;;;;;6.18;4.97;;;8.00;35.60;;;;;;5073222;28;20176;-49
2023/04/27 00:29:56;;;;;;;8.70;6.00;;;7.90;35.90;;;;;;5073328;28;20203;-49
2023/04/27 00:32:22;;;;;;;6.83;5.17;;;7.80;36.20;;;;;;5073082;28;20226;-49
2023/04/27 00:34:48;;;;;;;13.47;5.70;;;7.80;36.30;;;;;;5073176;28;20533;-49
2023/04/27 00:37:13;;;;;;;9.30;6.07;;;7.80;36.30;;;;;;5073033;28;20228;-49
2023/04/27 00:39:39;;;;;;;8.53;5.40;;;7.70;36.30;;;;;;5072900;28;20192;-49
2023/04/27 00:42:05;;;;;;;8.63;6.30;;;7.70;36.10;;;;;;5072977;28;20184;-49
2023/04/27 00:44:31;;;;;;;15.02;5.80;;;7.70;36.30;;;;;;5072864;28;20407;-49
2023/04/27 00:46:57;;;;;;;6.37;5.77;;;7.70;35.90;;;;;;5072959;28;20175;-49
2023/04/27 00:49:25;;;;;;;11.60;5.82;;;7.70;36.20;;;;;;5072715;28;20606;-49
2023/04/27 00:51:51;;;;;;;9.57;6.30;;;7.70;36.20;;;;;;5072397;28;20190;-49
2023/04/27 00:54:19;;;;;;;10.70;7.10;;;7.70;36.30;;;;;;5072903;28;20212;-49
2023/04/27 00:56:48;;;;;;;8.48;5.57;;;7.60;36.10;;;;;;5072914;28;20583;-49
2023/04/27 00:59:14;;;;;;;11.85;5.85;;;7.60;36.10;;;;;;5072566;28;20188;-49
2023/04/27 01:01:40;;;;;;;10.60;5.60;;;7.60;36.20;;;;;;5072663;28;20173;-49
2023/04/27 01:04:06;;;;;;;8.97;5.43;;;7.60;36.10;;;;;;5072338;28;20173;-49
2023/04/27 01:06:32;;;;;;;9.27;6.07;;;7.50;36.40;;;;;;5072425;28;20255;-49
2023/04/27 01:08:57;;;;;;;8.50;5.97;;;7.50;36.30;;;;;;5072288;28;20188;-49
2023/04/27 01:11:23;;;;;;;9.83;6.40;;;7.50;36.30;;;;;;5072348;28;20398;-49
2023/04/27 01:13:50;;;;;;;7.80;5.97;;;7.50;36.30;;;;;;5072221;28;20455;-49
2023/04/27 01:16:17;;;;;;;10.65;6.30;;;7.50;36.30;;;;;;5072361;28;20174;-49
2023/04/27 01:18:44;;;;;;;9.65;6.05;;;7.40;36.30;;;;;;5072286;28;20648;-49
2023/04/27 01:21:10;;;;;;;12.40;5.57;;;7.50;36.20;;;;;;5072220;28;20202;-49
2023/04/27 01:23:36;;;;;;;6.40;5.23;;;7.40;36.40;;;;;;5072302;28;20204;-49
2023/04/27 01:26:02;;;;;;;7.45;5.88;;;7.40;36.30;;;;;;5072160;28;20937;-49
2023/04/27 01:28:28;;;;;;;6.37;5.33;;;7.40;36.50;;;;;;5072333;28;20176;-48
2023/04/27 01:30:53;;;;;;;10.83;5.87;;;7.40;36.50;;;;;;5072085;28;20289;-50
2023/04/27 01:33:19;;;;;;;8.83;6.07;;;7.40;36.50;;;;;;5072010;28;20201;-50
2023/04/27 01:35:45;;;;;;;6.87;4.47;;;7.40;36.70;;;;;;5071439;28;20176;-48
2023/04/27 01:38:11;;;;;;;6.93;5.27;;;7.40;36.80;;;;;;5072371;28;20418;-48
2023/04/27 01:40:37;;;;;;;14.48;5.20;;;7.40;36.40;;;;;;5072136;28;20196;-51
2023/04/27 01:43:03;;;;;;;8.17;6.37;;;7.40;36.30;;;;;;5072122;28;20173;-48
2023/04/27 01:45:28;;;;;;;7.80;5.30;;;7.50;36.40;;;;;;5072380;28;20255;-50
2023/04/27 01:47:54;;;;;;;6.77;4.30;;;7.50;36.40;;;;;;5072061;28;20192;-50
2023/04/27 01:50:20;;;;;;;7.80;5.82;;;7.50;36.60;;;;;;5071863;28;20193;-48
2023/04/27 01:52:46;;;;;;;7.70;5.60;;;7.50;36.40;;;;;;5071943;28;20252;-48
2023/04/27 01:55:12;;;;;;;5.15;4.65;;;7.50;36.50;;;;;;5071877;28;20800;-50
2023/04/27 01:57:38;;;;;;;7.63;4.93;;;7.60;36.60;;;;;;5071920;28;20169;-48
2023/04/27 02:00:04;;;;;;;7.27;4.50;;;7.50;36.60;;;;;;5071832;28;20200;-50
2023/04/27 02:02:30;;;;;;;7.28;6.38;;;7.60;36.60;;;;;;5071912;28;20403;-50
2023/04/27 02:04:56;;;;;;;6.60;5.60;;;7.60;36.80;;;;;;5071820;28;20183;-50
2023/04/27 02:07:22;;;;;;;8.33;4.90;;;7.60;36.70;;;;;;5071843;28;20506;-47
2023/04/27 02:09:47;;;;;;;9.20;5.70;;;7.60;36.80;;;;;;5071633;28;20193;-50
2023/04/27 02:12:13;;;;;;;9.07;6.10;;;7.60;36.90;;;;;;5071583;28;20413;-50
2023/04/27 02:14:39;;;;;;;22.70;7.40;;;7.60;36.90;;;;;;5071853;28;20175;-48
2023/04/27 02:17:05;;;;;;;6.20;5.63;;;7.60;36.90;;;;;;5071780;28;20564;-48
2023/04/27 02:19:31;;;;;;;10.43;5.75;;;7.60;37.00;;;;;;5071572;28;20432;-50
2023/04/27 02:21:57;;;;;;;13.10;6.00;;;7.60;36.90;;;;;;5071408;28;20194;-50
2023/04/27 02:24:22;;;;;;;9.13;5.43;;;7.60;37.10;;;;;;5071614;28;20173;-47
2023/04/27 02:26:48;;;;;;;11.83;6.27;;;7.60;37.10;;;;;;5071906;28;20176;-49
2023/04/27 02:29:14;;;;;;;6.47;4.70;;;7.60;37.10;;;;;;5071821;28;20196;-50
2023/04/27 02:31:40;;;;;;;8.73;5.80;;;7.60;37.10;;;;;;5071466;28;20317;-49
2023/04/27 02:34:05;;;;;;;7.00;4.80;;;7.60;37.20;;;;;;5071280;28;20224;-50
2023/04/27 02:36:31;;;;;;;9.40;5.67;;;7.60;37.00;;;;;;5071584;28;20758;-49
2023/04/27 02:38:57;;;;;;;7.20;5.20;;;7.60;37.20;;;;;;5071418;28;20192;-48
2023/04/27 02:41:23;;;;;;;11.70;5.70;;;7.60;37.10;;;;;;5071571;28;20580;-49
2023/04/27 02:43:50;;;;;;;7.00;4.93;;;7.60;37.20;;;;;;5071238;28;20181;-49
2023/04/27 02:46:16;;;;;;;9.27;5.00;;;7.60;37.30;;;;;;5072231;28;20185;-49
2023/04/27 02:48:41;;;;;;;12.07;6.00;;;7.60;37.20;;;;;;5075039;28;20228;-49
2023/04/27 02:51:07;;;;;;;13.43;5.10;;;7.60;37.20;;;;;;5075169;28;20168;-49
2023/04/27 02:53:33;;;;;;;7.43;6.17;;;7.60;37.20;;;;;;5074740;28;20203;-49
2023/04/27 02:55:58;;;;;;;8.63;4.83;;;7.60;37.20;;;;;;5075140;28;20588;-50
2023/04/27 02:58:25;;;;;;;7.80;6.10;;;7.50;37.10;;;;;;5075027;28;20656;-49
2023/04/27 03:00:54;;;;;;;7.60;6.10;;;7.50;37.20;;;;;;5074807;28;20333;-49
2023/04/27 03:03:21;;;;;;;7.40;5.10;;;7.50;37.40;;;;;;5074806;28;20276;-49
2023/04/27 03:05:46;;;;;;;8.13;5.57;;;7.50;37.50;;;;;;5075081;28;20178;-50
2023/04/27 03:08:12;;;;;;;9.37;5.47;;;7.50;37.50;;;;;;5074739;28;20259;-49
2023/04/27 03:10:38;;;;;;;8.10;5.10;;;7.50;37.50;;;;;;5074817;28;20197;-49
2023/04/27 03:13:04;;;;;;;9.80;5.70;;;7.40;37.50;;;;;;5074393;28;20754;-50
2023/04/27 03:15:30;;;;;;;8.03;5.07;;;7.40;37.50;;;;;;5075006;28;20261;-50
2023/04/27 03:17:55;;;;;;;5.80;5.13;;;7.40;37.60;;;;;;5074654;28;20540;-49
2023/04/27 03:20:21;;;;;;;12.93;5.83;;;7.40;37.40;;;;;;5074493;28;20556;-50
2023/04/27 03:22:47;;;;;;;10.63;5.20;;;7.40;37.50;;;;;;5074263;28;20412;-50
2023/04/27 03:25:13;;;;;;;7.47;4.60;;;7.40;37.50;;;;;;5074538;28;20169;-49
2023/04/27 03:27:39;;;;;;;8.25;5.40;;;7.40;37.60;;;;;;5074471;28;20215;-49
2023/04/27 03:30:05;;;;;;;6.93;5.07;;;7.40;37.50;;;;;;5074493;28;20230;-50
2023/04/27 03:32:30;;;;;;;8.07;5.65;;;7.40;37.50;;;;;;5074091;28;20241;-49
2023/04/27 03:34:56;;;;;;;8.43;5.70;;;7.40;37.50;;;;;;5074365;28;20199;-49
2023/04/27 03:37:22;;;;;;;10.50;5.27;;;7.40;37.50;;;;;;5074539;28;20175;-49
2023/04/27 03:39:47;;;;;;;8.83;5.40;;;7.40;37.40;;;;;;5074280;28;20195;-49
2023/04/27 03:42:13;;;;;;;7.40;5.60;;;7.30;37.40;;;;;;5073930;28;20192;-51
2023/04/27 03:44:39;;;;;;;8.00;5.20;;;7.30;37.30;;;;;;5074202;28;20222;-51
2023/04/27 03:47:08;;;;;;;6.57;4.03;;;7.30;37.40;;;;;;5073966;28;20623;-48
2023/04/27 03:49:37;;;;;;;7.38;5.10;;;7.30;37.50;;;;;;5074174;28;20216;-50
2023/04/27 03:52:03;;;;;;;11.50;5.68;;;7.30;37.40;;;;;;5073809;28;20181;-50
2023/04/27 03:54:32;;;;;;;7.85;5.95;;;7.30;37.50;;;;;;5073878;28;20690;-48
2023/04/27 03:56:58;;;;;;;8.15;5.10;;;7.30;37.40;;;;;;5073863;28;20207;-51
2023/04/27 03:59:23;;;;;;;11.47;5.90;;;7.20;37.20;;;;;;5073239;28;20188;-50
2023/04/27 04:01:49;;;;;;;7.43;5.63;;;7.20;37.50;;;;;;5073600;28;20529;-48
2023/04/27 04:04:15;;;;;;;6.83;5.47;;;7.20;37.60;;;;;;5073752;28;20173;-48
2023/04/27 04:06:41;;;;;;;18.90;6.35;;;7.20;37.50;;;;;;5072607;28;20312;-49
2023/04/27 04:09:06;;;;;;;8.93;5.93;;;7.20;37.70;;;;;;5074019;28;20642;-48
2023/04/27 04:11:32;;;;;;;10.80;5.53;;;7.10;37.60;;;;;;5073620;28;20181;-49
2023/04/27 04:13:58;;;;;;;19.20;4.97;;;7.10;37.90;;;;;;5073157;28;20200;-50
2023/04/27 04:16:24;;;;;;;12.83;6.07;;;7.10;37.90;;;;;;5073527;28;20879;-48
2023/04/27 04:18:50;;;;;;;43.37;11.00;;;7.10;37.90;;;;;;5073291;28;20180;-50
2023/04/27 04:21:15;;;;;;;21.23;7.82;;;7.10;37.90;;;;;;5073643;28;20188;-49
2023/04/27 04:23:41;;;;;;;14.03;6.53;;;7.10;37.80;;;;;;5073240;28;20185;-47
2023/04/27 04:26:07;;;;;;;15.63;7.00;;;7.10;37.90;;;;;;5073281;28;20188;-50
2023/04/27 04:28:33;;;;;;;11.40;4.95;;;7.10;38.20;;;;;;5073195;28;20180;-48
2023/04/27 04:31:03;;;;;;;16.17;6.50;;;7.10;38.10;;;;;;5073143;28;20645;-48
2023/04/27 04:33:30;;;;;;;8.63;6.07;;;7.10;38.30;;;;;;5073050;28;20212;-50
2023/04/27 04:35:56;;;;;;;13.85;6.45;;;7.10;38.30;;;;;;5072992;28;20641;-50
2023/04/27 04:38:22;;;;;;;12.93;6.40;;;7.00;38.30;;;;;;5073374;28;20211;-48
2023/04/27 04:40:49;;;;;;;11.68;6.35;;;7.00;38.40;;;;;;5055367;28;20205;-48
2023/04/27 04:43:15;;;;;;;9.25;5.97;;;7.10;38.50;;;;;;5072609;28;20267;-48
2023/04/27 04:45:41;;;;;;;8.87;6.10;;;7.00;38.70;;;;;;5072916;28;20251;-50
2023/04/27 04:48:07;;;;;;;9.27;6.30;;;7.00;38.90;;;;;;5072906;28;20586;-50
2023/04/27 04:50:33;;;;;;;11.07;6.43;;;7.00;38.90;;;;;;5072695;28;20288;-47
2023/04/27 04:52:58;;;;;;;7.27;5.60;;;7.10;39.00;;;;;;5072683;28;20296;-50
2023/04/27 04:55:27;;;;;;;7.63;5.93;;;7.10;38.80;;;;;;5072745;28;20189;-48
2023/04/27 04:57:53;;;;;;;7.95;6.18;;;7.20;38.90;;;;;;5072539;28;20179;-50
2023/04/27 05:00:19;;;;;;;11.97;7.40;;;7.20;38.80;;;;;;5072759;28;20199;-51
2023/04/27 05:02:45;;;;;;;14.85;6.90;;;7.30;38.90;;;;;;5072451;28;20418;-48
2023/04/27 05:05:10;;;;;;;8.47;5.93;;;7.40;38.90;;;;;;5072577;28;20696;-50
2023/04/27 05:07:36;;;;;;;11.90;5.87;;;7.50;38.80;;;;;;5072524;28;20275;-48
2023/04/27 05:10:02;;;;;;;11.70;7.00;;;7.60;38.80;;;;;;5070363;28;20224;-47
2023/04/27 05:12:28;;;;;;;10.53;5.97;;;7.70;38.80;;;;;;5071962;28;20204;-50
2023/04/27 05:14:53;;;;;;;6.63;5.93;;;7.70;38.90;;;;;;5072649;28;20482;-48
2023/04/27 05:17:19;;;;;;;7.57;5.93;;;7.80;38.60;;;;;;5072429;28;20169;-48
2023/04/27 05:19:45;;;;;;;10.70;7.00;;;7.90;38.60;;;;;;5072180;28;20273;-49
2023/04/27 05:22:11;;;;;;;8.57;6.80;;;8.00;38.60;;;;;;5072033;28;20172;-48
2023/04/27 05:24:36;;;;;;;9.10;6.03;;;8.00;38.50;;;;;;5072302;28;20165;-47
2023/04/27 05:27:02;;;;;;;9.00;7.87;;;8.10;38.40;;;;;;5072304;28;20279;-50
2023/04/27 05:29:28;;;;;;;7.87;6.77;;;8.10;38.50;;;;;;5072372;28;20627;-47
2023/04/27 05:31:54;;;;;;;13.67;7.77;;;8.20;38.60;;;;;;5071764;28;20426;-49
2023/04/27 05:34:20;;;;;;;9.57;7.25;;;8.30;38.60;;;;;;5072250;28;20476;-49
2023/04/27 05:36:46;;;;;;;12.03;8.13;;;8.40;38.40;;;;;;5072362;28;20640;-48
2023/04/27 05:39:12;;;;;;;17.93;8.10;;;8.50;38.50;;;;;;5072341;28;20188;-51
2023/04/27 05:41:38;;;;;;;12.55;7.80;;;8.60;38.30;;;;;;5072162;28;20436;-48
2023/04/27 05:44:04;;;;;;;8.13;7.30;;;8.70;38.30;;;;;;5072050;28;20179;-51
2023/04/27 05:46:30;;;;;;;10.80;8.75;;;8.80;38.10;;;;;;5072216;28;20182;-49
2023/04/27 05:48:56;;;;;;;16.20;8.73;;;8.80;38.10;;;;;;5071801;28;20201;-48
2023/04/27 05:51:22;;;;;;;13.63;9.17;;;8.90;38.70;;;;;;5072046;28;20414;-51
2023/04/27 05:53:47;;;;;;;10.50;7.97;;;9.00;38.10;;;;;;5071556;28;20249;-50
2023/04/27 05:56:13;;;;;;;11.07;6.83;;;9.00;37.80;;;;;;5071857;28;20171;-48
2023/04/27 05:58:39;;;;;;;11.30;6.73;;;9.10;38.10;;;;;;5072004;28;20407;-48
2023/04/27 06:01:04;;;;;;;11.70;7.80;;;9.10;37.90;;;;;;5072006;28;20176;-47
2023/04/27 06:03:31;;;;;;;11.13;7.30;;;9.20;37.60;;;;;;5071439;28;20513;-48
2023/04/27 06:05:58;;;;;;;11.32;6.85;;;9.30;38.40;;;;;;5071777;28;20820;-50
2023/04/27 06:08:25;;;;;;;12.60;6.88;;;9.30;37.40;;;;;;5071799;28;20173;-50
2023/04/27 06:10:50;;;;;;;10.98;6.25;;;9.40;37.60;;;;;;5071881;28;20202;-48
2023/04/27 06:13:17;;;;;;;9.30;6.43;;;9.50;37.20;;;;;;5071747;28;20568;-48
2023/04/27 06:15:42;;;;;;;9.25;6.40;;;9.50;36.90;;;;;;5071976;28;20175;-50
2023/04/27 06:18:08;;;;;;;12.77;7.00;;;9.50;37.00;;;;;;5071907;28;20175;-50
2023/04/27 06:20:35;;;;;;;12.93;5.90;;;9.50;37.10;;;;;;5071665;28;20417;-48
2023/04/27 06:23:01;;;;;;;11.70;5.50;;;9.60;37.10;;;;;;5075092;28;20179;-48
2023/04/27 06:25:27;;;;;;;10.07;6.80;;;9.70;37.10;;;;;;5075596;28;20270;-50
2023/04/27 06:27:54;;;;;;;10.80;6.55;;;9.90;37.00;;;;;;5075721;28;20459;-48
2023/04/27 06:30:20;;;;;;;10.27;6.40;;;10.00;37.30;;;;;;5075284;28;20703;-48
2023/04/27 06:32:46;;;;;;;8.50;6.27;;;10.10;36.50;;;;;;5075029;28;20234;-51
2023/04/27 06:35:13;;;;;;;7.53;4.97;;;10.20;36.60;;;;;;5075486;28;20502;-48
2023/04/27 06:37:39;;;;;;;8.20;5.88;;;10.30;36.10;;;;;;5075254;28;20643;-50
2023/04/27 06:40:05;;;;;;;14.97;8.07;;;10.40;36.20;;;;;;5075520;28;20282;-47
2023/04/27 06:42:31;;;;;;;10.95;6.13;;;10.50;36.00;;;;;;5075063;28;20211;-48
2023/04/27 06:44:57;;;;;;;10.70;6.50;;;10.60;36.00;;;;;;5075177;28;20175;-50
2023/04/27 06:47:23;;;;;;;7.88;5.40;;;10.80;35.90;;;;;;5075271;28;20187;-50
2023/04/27 06:49:49;;;;;;;10.87;8.03;;;10.90;36.10;;;;;;5075104;28;20188;-47
2023/04/27 06:52:15;;;;;;;10.07;5.97;;;11.00;35.90;;;;;;5074747;28;20430;-50
2023/04/27 06:54:41;;;;;;;7.60;6.10;;;11.10;35.50;;;;;;5075282;28;20787;-48
2023/04/27 06:57:07;;;;;;;8.37;6.10;;;11.30;35.40;;;;;;5075340;28;20173;-48
2023/04/27 06:59:32;;;;;;;8.70;6.20;;;11.30;34.90;;;;;;5074931;28;20184;-50
2023/04/27 07:01:58;;;;;;;9.30;5.20;;;11.40;35.10;;;;;;5073587;28;20164;-48
2023/04/27 07:04:24;;;;;;;11.03;6.13;;;11.60;35.50;;;;;;5074916;28;20172;-50
2023/04/27 07:06:50;;;;;;;9.57;5.30;;;11.70;35.10;;;;;;5074979;28;20181;-48
2023/04/27 07:09:15;;;;;;;15.90;6.70;;;11.90;35.20;;;;;;5074681;28;20224;-50
2023/04/27 07:11:41;;;;;;;6.77;5.70;;;11.90;34.30;;;;;;5073414;28;20430;-51
2023/04/27 07:14:07;;;;;;;7.27;6.30;;;12.00;34.50;;;;;;5074791;28;20204;-48
2023/04/27 07:16:33;;;;;;;7.97;6.20;;;12.10;34.20;;;;;;5074943;28;20406;-48
2023/04/27 07:18:58;;;;;;;9.97;6.43;;;12.30;34.40;;;;;;5074541;28;20668;-50
2023/04/27 07:21:24;;;;;;;7.93;5.53;;;12.50;34.30;;;;;;5074527;28;20230;-50
2023/04/27 07:23:50;;;;;;;8.77;6.07;;;12.70;34.30;;;;;;5074297;28;20649;-48
2023/04/27 07:26:16;;;;;;;8.80;7.37;;;12.80;34.00;;;;;;5074528;28;20169;-50
2023/04/27 07:28:43;;;;;;;8.68;5.82;;;13.00;33.90;;;;;;5074482;28;20176;-50
2023/04/27 07:31:09;;;;;;;9.93;6.80;;;13.10;33.70;;;;;;5074300;28;20197;-48
2023/04/27 07:33:35;;;;;;;9.85;6.78;;;13.30;33.50;;;;;;5073140;28;20204;-48
2023/04/27 07:36:01;;;;;;;9.40;6.70;;;13.30;32.40;;;;;;5074438;28;20259;-50
2023/04/27 07:38:29;;;;;;;9.60;7.90;;;13.40;31.80;;;;;;5074577;28;20636;-48
2023/04/27 07:40:57;;;;;;;9.75;6.28;;;13.50;32.10;;;;;;5074401;28;20370;-50
2023/04/27 07:43:24;;;;;;;9.00;7.40;;;13.40;30.40;;;;;;5073884;28;20183;-48
2023/04/27 07:45:50;;;;;;;12.45;6.40;;;13.50;31.90;;;;;;5074152;28;20220;-48
2023/04/27 07:48:17;;;;;;;11.38;6.90;;;13.70;32.20;;;;;;5074135;28;20169;-50
2023/04/27 07:50:43;;;;;;;10.15;6.93;;;13.90;30.80;;;;;;5073807;28;20782;-49
2023/04/27 07:53:08;;;;;;;14.63;6.27;;;14.00;29.00;;;;;;5073935;28;20200;-48
2023/04/27 07:55:34;;;;;;;8.87;6.50;;;14.10;29.10;;;;;;5074124;28;20168;-50
2023/04/27 07:58:01;;;;;;;8.60;6.20;;;14.10;29.90;;;;;;5074130;28;20168;-50
2023/04/27 08:00:27;;;;;;;10.15;6.80;;;14.30;28.80;;;;;;5073974;28;20192;-50
2023/04/27 08:02:53;;;;;;;11.40;5.60;;;14.40;29.00;;;;;;5073529;28;20168;-50
2023/04/27 08:05:19;;;;;;;9.65;6.25;;;14.50;30.00;;;;;;5073743;28;20800;-48
2023/04/27 08:07:45;;;;;;;8.60;6.22;;;14.70;29.80;;;;;;5074098;28;20576;-49
2023/04/27 08:10:11;;;;;;;10.35;6.15;;;14.90;30.20;;;;;;5073590;28;20741;-50
2023/04/27 08:12:37;;;;;;;7.43;5.50;;;15.10;30.00;;;;;;5073510;28;20209;-49
2023/04/27 08:15:04;;;;;;;6.80;6.10;;;15.40;29.60;;;;;;5073617;28;20222;-49
2023/04/27 08:17:30;;;;;;;11.73;6.70;;;15.70;28.80;;;;;;5073588;28;20276;-49
2023/04/27 08:19:56;;;;;;;11.80;7.80;;;15.70;27.30;;;;;;5073321;28;20274;-51
2023/04/27 08:22:21;;;;;;;10.53;6.10;;;15.90;28.00;;;;;;5073228;28;20255;-49
2023/04/27 08:24:47;;;;;;;11.10;7.13;;;16.00;26.70;;;;;;5073349;28;20218;-51
2023/04/27 08:27:14;;;;;;;14.13;7.40;;;16.10;26.50;;;;;;5073308;28;20173;-51
2023/04/27 08:29:47;;;;;;;9.10;6.93;;;16.20;26.80;;;;;;5073225;28;20246;-49
2023/04/27 08:32:13;;;;;;;8.90;7.00;;;16.30;27.20;;;;;;5072836;28;20188;-48
2023/04/27 08:34:39;;;;;;;10.02;6.30;;;16.60;28.00;;;;;;5073061;28;20200;-51
2023/04/27 08:37:05;;;;;;;7.10;6.40;;;16.80;27.80;;;;;;5073082;28;20188;-49
2023/04/27 08:39:31;;;;;;;9.00;7.18;;;17.00;27.60;;;;;;5072939;28;20739;-51
2023/04/27 08:41:57;;;;;;;7.90;6.43;;;17.30;27.20;;;;;;5072815;28;20211;-49
2023/04/27 08:44:23;;;;;;;12.00;7.63;;;17.50;27.20;;;;;;5072830;28;20265;-51
2023/04/27 08:46:50;;;;;;;10.73;7.10;;;17.70;26.10;;;;;;5072827;28;20188;-51
2023/04/27 08:49:15;;;;;;;7.45;6.55;;;17.90;27.00;;;;;;5072948;28;20423;-49
2023/04/27 08:51:42;;;;;;;11.13;7.37;;;18.10;25.00;;;;;;5072927;28;20548;-51
2023/04/27 08:54:08;;;;;;;8.63;6.70;;;18.20;25.60;;;;;;5072624;28;20799;-49
2023/04/27 08:56:33;;;;;;;6.37;5.57;;;18.30;23.80;;;;;;5072761;28;20210;-48
2023/04/27 08:59:02;;;;;;;10.60;6.60;;;18.20;24.00;;;;;;5072650;28;20426;-51
2023/04/27 09:01:29;;;;;;;10.02;6.90;;;18.30;23.60;;;;;;5072614;28;20175;-51
2023/04/27 09:04:00;;;;;;;7.97;6.70;;;18.20;24.10;;;;;;5072389;28;20213;-48
2023/04/27 09:06:33;;;;;;;10.60;7.05;;;18.10;24.90;;;;;;5072934;28;20153;-48
2023/04/27 09:09:00;;;;;;;14.60;7.38;;;18.00;24.90;;;;;;5072489;28;20188;-50
2023/04/27 09:11:37;;;;;;;10.20;8.27;;;18.00;25.20;;;;;;5072577;28;20506;-50
2023/04/27 09:14:15;;;;;;;9.32;6.85;;;18.00;23.40;;;;;;5072130;28;20238;-48
2023/04/27 09:16:42;;;;;;;7.93;5.82;;;18.00;22.70;;;;;;5072439;28;20525;-50
2023/04/27 09:19:08;;;;;;;11.15;6.60;;;17.90;23.90;;;;;;5072309;28;20196;-51
2023/04/27 09:21:33;;;;;;;9.30;7.10;;;18.10;23.90;;;;;;5072367;28;20172;-48
2023/04/27 09:24:12;;;;;;;11.77;8.00;;;17.90;21.40;;;;;;5072340;28;20414;-48
2023/04/27 09:26:41;;;;;;;14.55;8.30;;;17.70;22.20;;;;;;5072267;28;20244;-50
2023/04/27 09:29:07;;;;;;;18.90;6.95;;;17.40;22.90;;;;;;5072061;28;20711;-49
2023/04/27 09:31:34;;;;;;;13.63;7.35;;;17.30;24.00;;;;;;5072116;28;20231;-50
2023/04/27 09:34:00;;;;;;;9.55;7.15;;;17.20;24.70;;;;;;5072201;28;20204;-49
2023/04/27 09:36:26;;;;;;;9.77;7.70;;;17.30;24.60;;;;;;5072225;28;20987;-50
2023/04/27 09:38:52;;;;;;;10.20;7.73;;;17.40;23.60;;;;;;5071943;28;20540;-51
2023/04/27 09:41:18;;;;;;;10.77;6.00;;;17.40;22.00;;;;;;5072345;28;20439;-50
2023/04/27 09:43:45;;;;;;;9.68;6.72;;;17.50;22.00;;;;;;5071749;28;20648;-50
2023/04/27 09:46:12;;;;;;;10.10;6.45;;;17.70;22.90;;;;;;5072299;28;20184;-50
2023/04/27 09:48:38;;;;;;;9.20;7.28;;;17.90;21.40;;;;;;5071956;28;20168;-50
2023/04/27 09:51:04;;;;;;;7.90;6.28;;;18.10;21.60;;;;;;5071933;28;20263;-50
2023/04/27 09:53:45;;;;;;;9.02;7.53;;;18.40;21.60;;;;;;5071554;28;20707;-50
2023/04/27 09:56:34;;;;;;;7.22;6.07;;;18.70;22.40;;;;;;5071668;28;20177;-50
2023/04/27 09:59:27;;;;;;;8.32;6.57;;;18.80;19.20;;;;;;5071703;28;20271;-50
2023/04/27 10:01:59;;;;;;;8.60;7.00;;;18.60;17.40;;;;;;5071560;28;20157;-50
2023/04/27 10:04:43;;;;;;;7.18;6.47;;;18.20;17.80;;;;;;5071879;28;20562;-50
2023/04/27 10:07:13;;;;;;;9.00;6.95;;;17.90;17.90;;;;;;5072123;28;20164;-50
2023/04/27 10:09:45;;;;;;;11.15;6.95;;;17.70;18.80;;;;;;5071732;28;20549;-50
2023/04/27 10:12:35;;;;;;;8.77;6.82;;;17.90;22.50;;;;;;5071540;28;20172;-50
2023/04/27 10:15:15;;;;;;;7.80;7.10;;;18.10;22.30;;;;;;5072022;28;20173;-50
2023/04/27 10:17:50;;;;;;;8.57;7.43;;;18.20;19.80;;;;;;5071706;28;20759;-51
2023/04/27 10:20:16;;;;;;;9.57;6.85;;;18.00;19.80;;;;;;5071642;28;20199;-50
2023/04/27 10:22:43;;;;;;;10.32;6.40;;;17.90;20.90;;;;;;5071428;28;20180;-50
2023/04/27 10:25:28;;;;;;;9.10;7.22;;;17.90;22.00;;;;;;5071600;28;20873;-52
2023/04/27 10:27:55;;;;;;;7.32;6.47;;;18.10;22.30;;;;;;5071537;28;20636;-51
2023/04/27 10:30:23;;;;;;;7.65;6.95;;;18.40;22.20;;;;;;5071440;28;20752;-50
2023/04/27 10:32:57;;;;;;;9.73;6.88;;;18.50;19.90;;;;;;5071546;28;20235;-51
2023/04/27 10:35:33;;;;;;;8.90;6.68;;;18.50;20.40;;;;;;5071391;28;20173;-51
2023/04/27 10:38:13;;;;;;;7.03;6.32;;;18.50;19.90;;;;;;5071612;28;20206;-49
2023/04/27 10:40:39;;;;;;;7.05;6.32;;;18.50;19.90;;;;;;5071648;28;20234;-50
2023/04/27 10:43:13;;;;;;;9.52;7.35;;;18.40;19.10;;;;;;5071314;28;20177;-49
2023/04/27 10:45:40;;;;;;;8.05;6.70;;;18.30;18.50;;;;;;5071328;28;20267;-48
2023/04/27 10:48:06;;;;;;;9.90;7.38;;;18.10;18.00;;;;;;5071470;28;20216;-51
2023/04/27 10:50:32;;;;;;;10.18;7.45;;;18.00;19.70;;;;;;5071503;28;20212;-51
2023/04/27 10:53:06;;;;;;;9.03;7.53;;;18.00;20.50;;;;;;5071141;28;20583;-49
2023/04/27 10:55:33;;;;;;;7.18;6.47;;;18.20;18.00;;;;;;5071455;28;20399;-51
2023/04/27 10:58:00;;;;;;;8.18;7.10;;;18.40;19.70;;;;;;5071307;28;20177;-52
2023/04/27 11:00:31;;;;;;;12.48;6.97;;;18.40;16.90;;;;;;5071482;28;20207;-49
2023/04/27 11:03:10;;;;;;;10.10;6.32;;;18.20;18.50;;;;;;5071111;28;20192;-51
2023/04/27 11:05:36;;;;;;;8.15;6.57;;;18.20;20.70;;;;;;5070028;28;20189;-51
2023/04/27 11:08:14;;;;;;;7.28;6.57;;;18.30;19.70;;;;;;5071897;28;20606;-48
2023/04/27 11:10:49;;;;;;;10.98;7.15;;;18.30;20.00;;;;;;5074566;28;20193;-51
2023/04/27 11:13:18;;;;;;;7.82;6.55;;;18.40;19.50;;;;;;5074419;28;20208;-49
2023/04/27 11:15:45;;;;;;;8.85;6.18;;;18.30;19.70;;;;;;5074652;28;20636;-48
2023/04/27 11:18:11;;;;;;;8.98;5.80;;;18.40;19.90;;;;;;5074588;28;20545;-51
2023/04/27 11:20:37;;;;;;;7.63;6.90;;;18.60;18.30;;;;;;5074854;28;20196;-51
2023/04/27 11:23:03;;;;;;;8.10;6.60;;;18.70;19.80;;;;;;5074296;28;20180;-48
2023/04/27 11:25:29;;;;;;;7.90;6.73;;;18.90;18.50;;;;;;5074503;28;20572;-51
2023/04/27 11:27:54;;;;;;;8.05;7.25;;;19.00;18.00;;;;;;5074484;28;20214;-51
2023/04/27 11:30:22;;;;;;;7.80;7.00;;;19.10;19.30;;;;;;5074473;28;20224;-48
2023/04/27 11:32:49;;;;;;;11.68;7.25;;;19.30;19.80;;;;;;5074086;28;20542;-51
2023/04/27 11:35:17;;;;;;;7.65;6.53;;;19.60;18.00;;;;;;5074451;28;20199;-51
2023/04/27 11:37:42;;;;;;;9.55;6.55;;;19.80;19.80;;;;;;5074497;28;20184;-49
2023/04/27 11:40:10;;;;;;;7.37;6.37;;;20.00;17.40;;;;;;5074151;28;20572;-51
2023/04/27 11:42:35;;;;;;;7.30;6.43;;;20.10;17.70;;;;;;5074165;28;20176;-51
2023/04/27 11:45:04;;;;;;;9.20;6.17;;;20.10;17.70;;;;;;5074134;28;20180;-51
2023/04/27 11:47:32;;;;;;;9.73;5.88;;;20.20;18.10;;;;;;5074051;28;20489;-51
2023/04/27 11:50:03;;;;;;;8.63;6.53;;;20.10;17.10;;;;;;5073908;28;20197;-51
2023/04/27 11:52:30;;;;;;;7.78;5.63;;;19.90;18.40;;;;;;5073736;28;20250;-50
2023/04/27 11:54:57;;;;;;;8.32;5.53;;;19.80;17.60;;;;;;5074116;28;20206;-50
2023/04/27 11:57:31;;;;;;;7.00;5.53;;;19.60;17.50;;;;;;5074087;28;20172;-51
2023/04/27 12:00:01;;;;;;;8.00;6.00;;;19.50;17.70;;;;;;5073851;28;20283;-51
2023/04/27 12:02:29;;;;;;;7.57;6.88;;;19.40;18.10;;;;;;5073677;28;20610;-51
2023/04/27 12:04:57;;;;;;;12.85;6.88;;;19.30;17.30;;;;;;5073956;28;20274;-51
2023/04/27 12:07:23;;;;;;;6.55;5.85;;;19.10;17.40;;;;;;5073805;28;20157;-50
2023/04/27 12:09:48;;;;;;;8.17;6.47;;;19.10;18.80;;;;;;5073577;28;20192;-50
2023/04/27 12:12:20;;;;;;;6.87;6.17;;;19.30;19.30;;;;;;5073635;28;20169;-51
2023/04/27 12:14:46;;;;;;;13.98;6.85;;;19.60;18.10;;;;;;5073795;28;20474;-50
2023/04/27 12:17:12;;;;;;;8.67;6.40;;;19.80;19.10;;;;;;5073471;28;20207;-51
2023/04/27 12:19:37;;;;;;;8.10;6.20;;;19.90;17.70;;;;;;5073248;28;20431;-51
2023/04/27 12:22:04;;;;;;;8.30;6.50;;;20.10;18.80;;;;;;5073206;28;20176;-51
2023/04/27 12:24:31;;;;;;;8.90;6.00;;;20.30;17.10;;;;;;5073451;28;20176;-50
2023/04/27 12:26:56;;;;;;;7.70;6.80;;;20.40;17.80;;;;;;5073532;28;20185;-51
2023/04/27 12:29:23;;;;;;;7.47;6.07;;;20.50;17.80;;;;;;5073215;28;20199;-51
2023/04/27 12:31:49;;;;;;;9.45;7.30;;;20.50;17.20;;;;;;5072882;28;20430;-51
2023/04/27 12:34:15;;;;;;;7.97;6.30;;;20.50;18.30;;;;;;5072994;28;20220;-51
2023/04/27 12:36:41;;;;;;;11.17;7.70;;;20.40;16.50;;;;;;5073127;28;20161;-51
2023/04/27 12:39:18;;;;;;;10.37;6.27;;;20.30;15.70;;;;;;5073257;28;20188;-51
2023/04/27 12:41:46;;;;;;;8.55;7.57;;;20.10;16.80;;;;;;5073179;28;20169;-51
2023/04/27 12:44:12;;;;;;;10.05;7.50;;;19.80;16.60;;;;;;5072916;28;20206;-51
2023/04/27 12:46:39;;;;;;;11.85;8.05;;;19.80;17.90;;;;;;5072894;28;20257;-51